createdAt,value
2023-02-09T00:02:17.449Z,102989.53
2023-02-09T00:05:20.521Z,102984.84
2023-02-09T00:08:23.075Z,102988.22
2023-02-09T00:11:47.733Z,102987.38
2023-02-09T00:14:50.415Z,102995.03
2023-02-09T00:17:53.337Z,102995.94
2023-02-09T00:20:58.541Z,102990.53
2023-02-09T00:24:01.478Z,102988.66
2023-02-09T00:27:04.122Z,102965.50
2023-02-09T00:30:08.274Z,102987.81
2023-02-09T00:33:11.923Z,102987.06
2023-02-09T00:36:15.661Z,102991.44
2023-02-09T00:39:18.518Z,102992.47
2023-02-09T00:42:21.473Z,102974.12
2023-02-09T00:45:24.936Z,102986.06
2023-02-09T00:48:28.276Z,102968.59
2023-02-09T00:51:31.915Z,102944.44
2023-02-09T00:54:34.870Z,102982.34
2023-02-09T00:57:37.559Z,102971.22
2023-02-09T01:00:41.560Z,102962.56
2023-02-09T01:03:44.621Z,102952.88
2023-02-09T01:06:47.699Z,102958.81
2023-02-09T01:09:52.979Z,102918.66
2023-02-09T01:12:55.905Z,102957.44
2023-02-09T01:15:58.602Z,102927.81
2023-02-09T01:19:04.012Z,102956.31
2023-02-09T01:22:07.161Z,102962.63
2023-02-09T01:25:13.778Z,102938.19
2023-02-09T01:28:16.507Z,102948.59
2023-02-09T01:31:27.729Z,102941.78
2023-02-09T01:34:30.585Z,102950.44
2023-02-09T01:37:35.023Z,102893.12
2023-02-09T01:40:38.013Z,102933.88
2023-02-09T01:43:48.465Z,102937.97
2023-02-09T01:46:51.113Z,102932.84
2023-02-09T01:49:54.136Z,102940.78
2023-02-09T01:52:57.375Z,102921.37
2023-02-09T01:56:06.822Z,102915.97
2023-02-09T01:59:10.787Z,102890.75
2023-02-09T02:02:16.134Z,102920.31
2023-02-09T02:05:19.968Z,102914.59
2023-02-09T02:08:30.458Z,102920.47
2023-02-09T02:11:33.802Z,102921.00
2023-02-09T02:14:39.137Z,102914.41
2023-02-09T02:18:19.177Z,102907.91
2023-02-09T02:21:43.488Z,102917.28
2023-02-09T02:25:17.263Z,102923.06
2023-02-09T02:28:44.519Z,102914.75
2023-02-09T02:32:08.212Z,102906.22
2023-02-09T02:35:34.564Z,102901.09
2023-02-09T02:38:54.724Z,102894.47
2023-02-09T02:42:31.153Z,102887.87
2023-02-09T02:45:40.142Z,102893.06
2023-02-09T02:49:00.958Z,102886.84
2023-02-09T02:52:08.150Z,102881.84
2023-02-09T02:55:15.031Z,102872.94
2023-02-09T02:58:21.344Z,102881.00
2023-02-09T03:01:28.088Z,102880.44
2023-02-09T03:04:32.635Z,102875.06
2023-02-09T03:07:35.301Z,102875.25
2023-02-09T03:10:40.902Z,102852.88
2023-02-09T03:14:05.085Z,102874.91
2023-02-09T03:17:24.384Z,102875.31
2023-02-09T03:20:52.539Z,102875.84
2023-02-09T03:24:07.089Z,102879.19
2023-02-09T03:27:19.548Z,102832.66
2023-02-09T03:30:24.812Z,102849.63
2023-02-09T03:33:31.019Z,102871.31
2023-02-09T03:36:37.111Z,102871.81
2023-02-09T03:39:39.831Z,102869.28
2023-02-09T03:42:42.953Z,102864.09
2023-02-09T03:45:45.580Z,102858.22
2023-02-09T03:48:50.086Z,102875.81
2023-02-09T03:51:53.388Z,102873.50
2023-02-09T03:54:56.309Z,102839.97
2023-02-09T03:57:59.031Z,102875.47
2023-02-09T04:01:10.773Z,102850.81
2023-02-09T04:04:13.907Z,102866.22
2023-02-09T04:07:17.101Z,102868.78
2023-02-09T04:10:20.344Z,102868.72
2023-02-09T04:13:25.298Z,102871.59
2023-02-09T04:16:28.339Z,102870.66
2023-02-09T04:19:31.090Z,102877.63
2023-02-09T04:22:34.014Z,102878.41
2023-02-09T04:25:36.670Z,102871.16
2023-02-09T04:28:39.558Z,102865.53
2023-02-09T04:31:42.206Z,102875.13
2023-02-09T04:34:47.304Z,102871.56
2023-02-09T04:37:49.948Z,102865.09
2023-02-09T04:40:55.249Z,102838.81
2023-02-09T04:43:57.919Z,102882.06
2023-02-09T04:47:00.819Z,102882.91
2023-02-09T04:50:04.383Z,102890.87
2023-02-09T04:53:09.113Z,102892.13
2023-02-09T04:56:16.037Z,102899.25
2023-02-09T04:59:39.264Z,102904.31
2023-02-09T05:02:42.017Z,102906.78
2023-02-09T05:05:44.989Z,102910.00
2023-02-09T05:08:48.779Z,102899.97
2023-02-09T05:11:51.821Z,102913.88
2023-02-09T05:14:54.449Z,102911.34
2023-02-09T05:17:57.509Z,102905.72
2023-02-09T05:21:00.322Z,102910.56
2023-02-09T05:24:03.311Z,102912.97
2023-02-09T05:27:05.942Z,102891.34
2023-02-09T05:30:09.649Z,102910.06
2023-02-09T05:33:12.265Z,102893.22
2023-02-09T05:36:15.222Z,102909.97
2023-02-09T05:39:17.895Z,102916.69
2023-02-09T05:42:20.918Z,102905.16
2023-02-09T05:45:23.594Z,102919.84
2023-02-09T05:48:26.566Z,102895.38
2023-02-09T05:51:29.487Z,102911.47
2023-02-09T05:54:32.523Z,102915.56
2023-02-09T05:57:37.563Z,102912.22
2023-02-09T06:00:43.249Z,102876.88
2023-02-09T06:03:46.433Z,102915.25
2023-02-09T06:06:49.071Z,102885.31
2023-02-09T06:09:52.017Z,102913.53
2023-02-09T06:12:54.801Z,102916.59
2023-02-09T06:15:57.879Z,102916.59
2023-02-09T06:19:00.522Z,102923.44
2023-02-09T06:22:03.529Z,102919.00
2023-02-09T06:25:06.566Z,102923.97
2023-02-09T06:28:09.498Z,102919.03
2023-02-09T06:31:12.583Z,102936.62
2023-02-09T06:34:15.711Z,102932.19
2023-02-09T06:37:18.485Z,102897.28
2023-02-09T06:40:21.713Z,102910.03
2023-02-09T06:43:30.393Z,102918.84
2023-02-09T06:46:33.957Z,102924.03
2023-02-09T06:49:37.457Z,102924.69
2023-02-09T06:52:41.147Z,102915.63
2023-02-09T06:55:43.736Z,102919.75
2023-02-09T06:58:46.709Z,102916.53
2023-02-09T07:01:54.453Z,102905.84
2023-02-09T07:04:58.266Z,102912.09
2023-02-09T07:08:01.001Z,102896.25
2023-02-09T07:11:06.603Z,102918.31
2023-02-09T07:14:09.742Z,102926.59
2023-02-09T07:17:12.716Z,102921.66
2023-02-09T07:20:17.224Z,102916.94
2023-02-09T07:23:21.398Z,102925.41
2023-02-09T07:26:24.053Z,102929.03
2023-02-09T07:29:27.182Z,102925.59
2023-02-09T07:32:29.783Z,102930.78
2023-02-09T07:35:33.063Z,102933.34
2023-02-09T07:38:36.368Z,102932.00
2023-02-09T07:41:39.572Z,102932.94
2023-02-09T07:44:42.282Z,102934.06
2023-02-09T07:47:45.210Z,102925.88
2023-02-09T07:50:49.642Z,102929.53
2023-02-09T07:53:53.657Z,102926.78
2023-02-09T07:56:56.538Z,102929.44
2023-02-09T07:59:59.572Z,102920.12
2023-02-09T08:03:04.430Z,102928.22
2023-02-09T08:06:36.249Z,102904.34
2023-02-09T08:09:45.202Z,102929.47
2023-02-09T08:13:02.223Z,102922.75
2023-02-09T08:16:08.820Z,102917.25
2023-02-09T08:19:19.893Z,102921.56
2023-02-09T08:22:25.583Z,102924.09
2023-02-09T08:25:28.773Z,102918.88
2023-02-09T08:28:43.279Z,102921.25
2023-02-09T08:32:07.489Z,102923.97
2023-02-09T08:35:10.564Z,102914.84
2023-02-09T08:38:13.837Z,102919.34
2023-02-09T08:41:17.844Z,102921.75
2023-02-09T08:44:20.834Z,102920.75
2023-02-09T08:47:23.566Z,102921.56
2023-02-09T08:50:26.562Z,102912.06
2023-02-09T08:53:29.194Z,102903.97
2023-02-09T08:56:32.270Z,102915.16
2023-02-09T08:59:35.026Z,102908.13
2023-02-09T09:02:37.896Z,102915.97
2023-02-09T09:05:40.462Z,102896.44
2023-02-09T09:08:43.525Z,102916.78
2023-02-09T09:11:46.284Z,102886.94
2023-02-09T09:14:49.191Z,102903.41
2023-02-09T09:17:55.986Z,102905.75
2023-02-09T09:20:59.265Z,102899.22
2023-02-09T09:24:01.887Z,102893.09
2023-02-09T09:27:04.724Z,102903.84
2023-02-09T09:30:07.742Z,102904.53
2023-02-09T09:33:10.783Z,102908.84
2023-02-09T09:36:14.758Z,102899.03
2023-02-09T09:39:18.892Z,102903.66
2023-02-09T09:42:26.104Z,102903.25
2023-02-09T09:45:31.544Z,102899.00
2023-02-09T09:48:47.992Z,102893.44
2023-02-09T09:51:56.532Z,102902.94
2023-02-09T09:55:01.578Z,102882.25
2023-02-09T09:58:06.829Z,102902.50
2023-02-09T10:01:18.479Z,102898.75
2023-02-09T10:04:22.082Z,102902.13
2023-02-09T10:07:31.681Z,102898.88
2023-02-09T10:10:43.951Z,102901.37
2023-02-09T10:13:53.664Z,102899.28
2023-02-09T10:16:56.604Z,102896.22
2023-02-09T10:20:07.302Z,102887.66
2023-02-09T10:23:35.468Z,102876.25
2023-02-09T10:26:40.431Z,102873.03
2023-02-09T10:29:43.555Z,102885.72
2023-02-09T10:32:46.617Z,102878.97
2023-02-09T10:35:53.098Z,102878.22
2023-02-09T10:39:12.441Z,102876.53
2023-02-09T10:42:32.806Z,102874.78
2023-02-09T10:45:40.873Z,102877.63
2023-02-09T10:48:46.110Z,102867.88
2023-02-09T10:51:51.146Z,102859.12
2023-02-09T10:55:00.992Z,102857.19
2023-02-09T10:58:09.503Z,102846.59
2023-02-09T11:01:20.103Z,102848.94
2023-02-09T11:04:25.994Z,102851.25
2023-02-09T11:07:41.874Z,102843.06
2023-02-09T11:10:55.918Z,102848.41
2023-02-09T11:13:59.966Z,102844.81
2023-02-09T11:17:26.731Z,102848.78
2023-02-09T11:20:35.822Z,102848.59
2023-02-09T11:23:49.815Z,102836.97
2023-02-09T11:27:03.500Z,102841.91
2023-02-09T11:30:38.999Z,102834.78
2023-02-09T11:34:06.635Z,102836.34
2023-02-09T11:37:29.642Z,102830.41
2023-02-09T11:40:44.388Z,102831.09
2023-02-09T11:43:54.531Z,102834.38
2023-02-09T11:47:14.470Z,102827.91
2023-02-09T11:50:27.684Z,102834.22
2023-02-09T11:53:51.703Z,102824.09
2023-02-09T11:57:01.670Z,102825.47
2023-02-09T12:00:15.384Z,102805.34
2023-02-09T12:03:18.236Z,102804.28
2023-02-09T12:06:24.029Z,102807.91
2023-02-09T12:09:31.789Z,102792.50
2023-02-09T12:13:01.629Z,102798.22
2023-02-09T12:16:26.353Z,102788.31
2023-02-09T12:19:43.576Z,102784.78
2023-02-09T12:22:57.921Z,102781.41
2023-02-09T12:26:01.848Z,102776.81
2023-02-09T12:29:39.790Z,102777.47
2023-02-09T12:32:44.888Z,102772.59
2023-02-09T12:36:16.098Z,102766.72
2023-02-09T12:39:25.026Z,102762.09
2023-02-09T12:42:30.201Z,102760.53
2023-02-09T12:45:44.259Z,102755.56
2023-02-09T12:48:49.845Z,102746.44
2023-02-09T12:52:03.289Z,102747.25
2023-02-09T12:55:19.910Z,102738.63
2023-02-09T12:58:43.953Z,102740.81
2023-02-09T13:02:08.515Z,102740.72
2023-02-09T13:05:14.654Z,102728.09
2023-02-09T13:08:28.501Z,102726.38
2023-02-09T13:11:55.780Z,102724.87
2023-02-09T13:14:58.362Z,102726.09
2023-02-09T13:18:12.608Z,102718.28
2023-02-09T13:21:27.095Z,102715.94
2023-02-09T13:24:44.952Z,102697.87
2023-02-09T13:27:51.820Z,102705.19
2023-02-09T13:30:54.843Z,102701.81
2023-02-09T13:34:03.473Z,102696.75
2023-02-09T13:37:35.703Z,102698.84
2023-02-09T13:40:46.243Z,102705.53
2023-02-09T13:43:49.441Z,102699.66
2023-02-09T13:47:01.976Z,102703.34
2023-02-09T13:50:17.103Z,102695.66
2023-02-09T13:53:24.345Z,102696.62
2023-02-09T13:56:29.653Z,102693.22
2023-02-09T13:59:33.291Z,102695.09
2023-02-09T14:02:37.785Z,102687.25
2023-02-09T14:05:58.351Z,102683.94
2023-02-09T14:09:03.260Z,102690.38
2023-02-09T14:12:15.405Z,102685.47
2023-02-09T14:15:40.560Z,102683.03
2023-02-09T14:18:53.525Z,102690.87
2023-02-09T14:21:56.739Z,102683.94
2023-02-09T14:24:59.788Z,102677.00
2023-02-09T14:28:02.492Z,102682.16
2023-02-09T14:31:07.376Z,102674.41
2023-02-09T14:34:21.645Z,102677.03
2023-02-09T14:37:24.477Z,102668.94
2023-02-09T14:40:27.049Z,102668.59
2023-02-09T14:43:29.953Z,102674.50
2023-02-09T14:46:50.027Z,102680.78
2023-02-09T14:49:52.921Z,102678.50
2023-02-09T14:53:06.970Z,102669.19
2023-02-09T14:56:27.545Z,102662.38
2023-02-09T14:59:31.062Z,102660.72
2023-02-09T15:02:34.301Z,102670.47
2023-02-09T15:05:37.114Z,102672.72
2023-02-09T15:08:40.638Z,102667.31
2023-02-09T15:12:03.118Z,102660.44
2023-02-09T15:15:06.245Z,102664.28
2023-02-09T15:18:18.856Z,102670.09
2023-02-09T15:21:21.867Z,102667.84
2023-02-09T15:24:24.621Z,102667.34
2023-02-09T15:27:33.127Z,102670.75
2023-02-09T15:30:36.123Z,102668.47
2023-02-09T15:33:39.202Z,102668.44
2023-02-09T15:36:41.841Z,102669.75
2023-02-09T15:39:44.914Z,102665.38
2023-02-09T15:43:06.982Z,102667.47
2023-02-09T15:46:28.811Z,102666.97
2023-02-09T15:49:32.024Z,102663.72
2023-02-09T15:52:35.262Z,102660.44
2023-02-09T15:55:39.776Z,102661.97
2023-02-09T15:58:46.279Z,102657.13
2023-02-09T16:01:50.519Z,102668.34
2023-02-09T16:04:53.726Z,102663.91
2023-02-09T16:07:56.936Z,102680.38
2023-02-09T16:11:01.720Z,102686.03
2023-02-09T16:14:06.365Z,102675.72
2023-02-09T16:17:09.592Z,102676.12
2023-02-09T16:20:13.608Z,102671.97
2023-02-09T16:23:21.321Z,102678.59
2023-02-09T16:26:26.595Z,102659.47
2023-02-09T16:29:29.937Z,102672.78
2023-02-09T16:32:32.816Z,102670.19
2023-02-09T16:35:37.380Z,102675.00
2023-02-09T16:38:40.276Z,102680.59
2023-02-09T16:41:49.798Z,102684.91
2023-02-09T16:44:53.268Z,102682.06
2023-02-09T16:47:59.156Z,102686.47
2023-02-09T16:51:02.582Z,102673.13
2023-02-09T16:54:05.833Z,102674.41
2023-02-09T16:57:12.475Z,102688.38
2023-02-09T17:00:15.883Z,102666.63
2023-02-09T17:03:22.816Z,102674.66
2023-02-09T17:06:29.837Z,102675.03
2023-02-09T17:09:32.596Z,102685.69
2023-02-09T17:12:35.821Z,102692.47
2023-02-09T17:15:46.035Z,102692.28
2023-02-09T17:18:55.546Z,102686.63
2023-02-09T17:22:00.367Z,102689.31
2023-02-09T17:25:03.658Z,102688.38
2023-02-09T17:28:06.686Z,102695.63
2023-02-09T17:31:21.211Z,102692.34
2023-02-09T17:34:27.344Z,102694.06
2023-02-09T17:37:31.128Z,102696.72
2023-02-09T17:40:35.972Z,102703.50
2023-02-09T17:43:39.683Z,102704.81
2023-02-09T17:46:42.610Z,102695.66
2023-02-09T17:49:45.631Z,102701.28
2023-02-09T17:52:50.174Z,102698.69
2023-02-09T17:55:56.425Z,102700.56
2023-02-09T17:59:03.078Z,102697.25
2023-02-09T18:02:17.144Z,102692.66
2023-02-09T18:05:23.591Z,102695.41
2023-02-09T18:08:27.556Z,102689.12
2023-02-09T18:11:50.970Z,102693.31
2023-02-09T18:14:54.244Z,102697.41
2023-02-09T18:17:57.588Z,102687.03
2023-02-09T18:21:01.092Z,102691.88
2023-02-09T18:24:05.367Z,102702.75
2023-02-09T18:27:09.488Z,102694.78
2023-02-09T18:30:13.854Z,102688.31
2023-02-09T18:33:16.701Z,102692.62
2023-02-09T18:36:20.041Z,102699.22
2023-02-09T18:39:23.246Z,102696.06
2023-02-09T18:42:26.646Z,102679.81
2023-02-09T18:45:30.646Z,102684.34
2023-02-09T18:48:33.678Z,102693.91
2023-02-09T18:51:36.388Z,102684.50
2023-02-09T18:54:40.655Z,102694.97
2023-02-09T18:57:43.616Z,102686.31
2023-02-09T19:00:48.050Z,102696.38
2023-02-09T19:03:54.410Z,102692.13
2023-02-09T19:06:58.388Z,102697.87
2023-02-09T19:10:03.114Z,102696.25
2023-02-09T19:13:07.041Z,102707.25
2023-02-09T19:16:12.653Z,102701.37
2023-02-09T19:19:16.286Z,102701.44
2023-02-09T19:22:21.627Z,102711.87
2023-02-09T19:25:27.561Z,102710.91
2023-02-09T19:28:31.103Z,102683.69
2023-02-09T19:31:35.146Z,102704.72
2023-02-09T19:34:39.844Z,102708.66
2023-02-09T19:37:42.922Z,102705.81
2023-02-09T19:40:48.052Z,102700.38
2023-02-09T19:43:57.758Z,102710.06
2023-02-09T19:47:01.062Z,102697.94
2023-02-09T19:50:04.841Z,102697.41
2023-02-09T19:53:08.694Z,102674.16
2023-02-09T19:56:20.879Z,102690.28
2023-02-09T19:59:24.061Z,102691.56
2023-02-09T20:02:27.483Z,102685.72
2023-02-09T20:05:30.857Z,102691.53
2023-02-09T20:08:33.777Z,102684.34
2023-02-09T20:11:36.729Z,102678.50
2023-02-09T20:14:39.648Z,102683.00
2023-02-09T20:17:44.392Z,102682.25
2023-02-09T20:20:47.578Z,102687.13
2023-02-09T20:23:55.610Z,102680.25
2023-02-09T20:26:58.243Z,102676.47
2023-02-09T20:30:05.667Z,102676.31
2023-02-09T20:33:10.208Z,102662.50
2023-02-09T20:36:13.418Z,102679.41
2023-02-09T20:39:17.658Z,102678.97
2023-02-09T20:42:39.810Z,102679.88
2023-02-09T20:46:01.587Z,102678.88
2023-02-09T20:49:05.023Z,102666.69
2023-02-09T20:52:08.996Z,102666.94
2023-02-09T20:55:12.931Z,102671.38
2023-02-09T20:58:17.553Z,102664.03
2023-02-09T21:01:23.367Z,102656.91
2023-02-09T21:04:30.392Z,102670.72
2023-02-09T21:07:33.825Z,102663.84
2023-02-09T21:10:38.938Z,102674.53
2023-02-09T21:13:42.403Z,102663.06
2023-02-09T21:16:44.988Z,102652.84
2023-02-09T21:19:48.205Z,102658.81
2023-02-09T21:22:51.265Z,102659.00
2023-02-09T21:26:09.071Z,102659.38
2023-02-09T21:29:13.803Z,102657.59
2023-02-09T21:32:18.149Z,102644.63
2023-02-09T21:35:20.775Z,102651.53
2023-02-09T21:38:23.885Z,102644.91
2023-02-09T21:41:46.103Z,102647.72
2023-02-09T21:44:49.069Z,102654.88
2023-02-09T21:47:51.804Z,102646.44
2023-02-09T21:50:55.333Z,102651.91
2023-02-09T21:53:58.491Z,102659.56
2023-02-09T21:57:02.014Z,102661.75
2023-02-09T22:00:07.770Z,102655.31
2023-02-09T22:03:10.628Z,102647.94
2023-02-09T22:06:13.336Z,102648.81
2023-02-09T22:09:16.447Z,102658.66
2023-02-09T22:12:19.464Z,102657.63
2023-02-09T22:15:22.354Z,102638.47
2023-02-09T22:18:25.752Z,102649.16
2023-02-09T22:21:28.857Z,102661.50
2023-02-09T22:24:34.752Z,102668.41
2023-02-09T22:27:37.670Z,102672.56
2023-02-09T22:30:40.793Z,102671.59
2023-02-09T22:33:43.855Z,102672.09
2023-02-09T22:36:46.481Z,102665.72
2023-02-09T22:39:49.390Z,102672.50
2023-02-09T22:42:52.012Z,102665.94
2023-02-09T22:45:56.273Z,102673.19
2023-02-09T22:49:01.506Z,102667.28
2023-02-09T22:52:04.631Z,102667.69
2023-02-09T22:55:07.276Z,102663.16
2023-02-09T22:58:10.154Z,102668.72
2023-02-09T23:01:13.995Z,102660.09
2023-02-09T23:04:17.373Z,102688.00
2023-02-09T23:07:20.165Z,102677.94
2023-02-09T23:10:23.678Z,102685.31
2023-02-09T23:13:27.429Z,102677.75
2023-02-09T23:16:31.571Z,102670.78
2023-02-09T23:19:34.539Z,102683.06
2023-02-09T23:22:37.614Z,102672.81
2023-02-09T23:25:40.210Z,102677.56
2023-02-09T23:28:43.811Z,102672.62
2023-02-09T23:31:47.647Z,102671.38
2023-02-09T23:34:50.492Z,102662.75
2023-02-09T23:37:53.114Z,102655.16
2023-02-09T23:40:56.034Z,102646.72
2023-02-09T23:43:59.416Z,102646.59
2023-02-09T23:47:02.378Z,102634.03
2023-02-09T23:50:05.218Z,102640.56
2023-02-09T23:53:08.827Z,102640.56
2023-02-09T23:56:13.611Z,102649.41
2023-02-09T23:59:16.649Z,102625.03
